LXGB/GIB METAR and TAF weather

Enter ICAO airport designator
Station Type Date Time Source
LXGB METAR 2020/04/05 12:50 UTC NOAA

LXGB 051250Z 08013KT 9999 FEW014 BKN021 OVC033 17/13 Q1019 NOSIG RMK WHT WHT


Station Type Date Time Source
LXGB Decoded METAR 2020/04/05 12:50 UTC NOAA

Gibraltar, Gibraltar (LXGB) 36-09N 005-21W 0M
Apr 05, 2020 - 08:50 AM EDT / 2020.04.05 1250 UTC
Wind: from the E (080 degrees) at 15 MPH (13 KT):0
Visibility: greater than 7 mile(s):0
Sky conditions: overcast
Temperature: 62 F (17 C)
Dew Point: 55 F (13 C)
Relative Humidity: 77%
Pressure (altimeter): 30.09 in. Hg (1019 hPa)
ob: LXGB 051250Z 08013KT 9999 FEW014 BKN021 OVC033 17/13 Q1019 NOSIG RMK WHT WHT
cycle: 13

Station Type Date Time Source
LXGB TAF 2019/05/20 18:18 UTC NOAA

TAF
AMD TAF
AMD LXGB 202014Z 2018/2222 CNL

Example: see airport list